Time;durP1;ratioP1;P1;durP2;ratioP2;P2;SDS_P1;SDS_P2;PMS_P1;PMS_P2;Temp;Humidity;BMP_temperature;BMP_pressure;BME280_temperature;BME280_humidity;BME280_pressure;Samples;Min_cycle;Max_cycle;Signal;HPM_P1;HPM_P2
2021/07/31 00:01:08;;;;;;;6.80;5.82;;;;;;;19.26;89.46;96266.34;5032225;28;20695;-64
2021/07/31 00:03:37;;;;;;;7.28;6.15;;;;;;;19.45;88.30;96263.59;5033034;28;20182;-68
2021/07/31 00:06:04;;;;;;;6.43;5.28;;;;;;;19.35;88.91;96263.78;5032783;28;20206;-64
2021/07/31 00:08:30;;;;;;;8.60;5.78;;;;;;;19.48;88.34;96263.81;5032941;28;20190;-64
2021/07/31 00:10:56;;;;;;;8.43;5.75;;;;;;;19.61;87.71;96266.78;5032520;28;20266;-64
2021/07/31 00:13:22;;;;;;;9.45;5.68;;;;;;;19.51;88.20;96267.75;5031352;28;20182;-65
2021/07/31 00:15:47;;;;;;;7.03;5.68;;;;;;;19.71;86.79;96262.03;5032023;28;20614;-64
2021/07/31 00:18:13;;;;;;;5.97;5.38;;;;;;;19.62;87.28;96271.00;5032652;28;20186;-64
2021/07/31 00:20:39;;;;;;;6.03;5.43;;;;;;;19.68;86.80;96262.63;5029918;28;20195;-71
2021/07/31 00:23:05;;;;;;;6.35;5.22;;;;;;;19.68;86.58;96261.81;5032214;28;20186;-64
2021/07/31 00:25:31;;;;;;;7.07;5.40;;;;;;;19.56;86.85;96264.22;5032033;28;20563;-64
2021/07/31 00:27:56;;;;;;;6.95;5.50;;;;;;;19.45;87.71;96264.41;5031877;28;20784;-64
2021/07/31 00:30:26;;;;;;;8.13;5.43;;;;;;;19.48;87.68;96271.00;5031654;28;20190;-67
2021/07/31 00:32:52;;;;;;;9.77;5.68;;;;;;;19.66;86.76;96272.78;5015866;28;20182;-64
2021/07/31 00:35:17;;;;;;;8.07;5.78;;;;;;;19.71;86.40;96274.53;5032057;28;20193;-65
2021/07/31 00:37:43;;;;;;;6.25;5.65;;;;;;;19.60;87.06;96273.16;5031378;28;20190;-64
2021/07/31 00:40:09;;;;;;;5.78;5.07;;;;;;;19.60;87.23;96279.28;5031756;28;20256;-64
2021/07/31 00:42:37;;;;;;;6.53;5.40;;;;;;;19.70;86.93;96280.94;5031972;28;20244;-64
2021/07/31 00:45:03;;;;;;;6.47;5.68;;;;;;;19.90;85.54;96275.19;5031672;28;20210;-64
2021/07/31 00:47:29;;;;;;;7.50;5.80;;;;;;;19.89;85.77;96277.06;5031870;28;20217;-64
2021/07/31 00:49:55;;;;;;;10.07;5.93;;;;;;;20.02;84.81;96275.47;5030425;28;20214;-64
2021/07/31 00:52:20;;;;;;;7.90;5.68;;;;;;;19.99;84.87;96272.63;5032373;28;20186;-64
2021/07/31 00:54:46;;;;;;;6.72;5.00;;;;;;;20.03;83.78;96277.06;5031088;28;20198;-64
2021/07/31 00:57:14;;;;;;;5.13;4.47;;;;;;;19.80;80.10;96280.72;5030928;28;20547;-64
2021/07/31 00:59:40;;;;;;;5.13;3.75;;;;;;;19.65;79.08;96276.53;5031153;28;20248;-71
2021/07/31 01:02:05;;;;;;;3.85;3.55;;;;;;;19.63;78.64;96284.00;5031511;28;20640;-64
2021/07/31 01:04:31;;;;;;;5.55;3.50;;;;;;;19.66;77.80;96280.75;5031194;28;20690;-64
2021/07/31 01:06:56;;;;;;;5.05;3.80;;;;;;;19.66;78.30;96274.66;5031150;28;20199;-64
2021/07/31 01:09:22;;;;;;;3.83;3.47;;;;;;;19.84;76.67;96271.84;5031516;28;20179;-64
2021/07/31 01:11:47;;;;;;;4.55;3.60;;;;;;;19.75;77.88;96281.63;5029629;28;20217;-63
2021/07/31 01:14:13;;;;;;;3.50;3.20;;;;;;;19.62;80.22;96284.28;5031771;28;20187;-67
2021/07/31 01:16:38;;;;;;;3.40;3.10;;;;;;;19.43;80.11;96271.88;5030848;28;20187;-71
2021/07/31 01:19:04;;;;;;;3.70;3.40;;;;;;;19.31;81.76;96279.53;5027006;28;20191;-64
2021/07/31 01:21:36;;;;;;;4.38;2.70;;;;;;;19.24;81.47;96288.97;5021185;28;20194;-63
2021/07/31 01:24:01;;;;;;;3.63;3.10;;;;;;;19.26;81.96;96286.81;5030984;28;20328;-64
2021/07/31 01:26:27;;;;;;;3.65;3.35;;;;;;;19.28;84.02;96285.41;5031013;28;20210;-65
2021/07/31 01:28:52;;;;;;;3.53;3.22;;;;;;;19.24;84.19;96287.09;5030793;28;20187;-64
2021/07/31 01:31:18;;;;;;;3.70;3.35;;;;;;;19.06;85.37;96288.72;5031765;28;20182;-65
2021/07/31 01:33:43;;;;;;;5.43;3.58;;;;;;;18.87;85.03;96285.38;5030433;28;20245;-65
2021/07/31 01:36:08;;;;;;;3.25;2.95;;;;;;;18.63;85.54;96285.47;5031262;28;20186;-64
2021/07/31 01:38:34;;;;;;;2.97;2.78;;;;;;;18.56;84.36;96287.69;5031048;28;20230;-64
2021/07/31 01:40:59;;;;;;;2.88;2.67;;;;;;;18.45;84.39;96288.13;5030771;28;20627;-64
2021/07/31 01:43:24;;;;;;;3.85;2.58;;;;;;;18.28;83.76;96284.09;5031516;28;20199;-64
2021/07/31 01:45:50;;;;;;;2.92;2.42;;;;;;;18.35;84.01;96285.63;5030377;28;20194;-64
2021/07/31 01:48:15;;;;;;;2.50;2.30;;;;;;;18.12;86.91;96277.44;5031190;28;20194;-65
2021/07/31 01:50:43;;;;;;;3.00;2.40;;;;;;;18.07;85.46;96276.72;5030361;28;20205;-70
2021/07/31 01:53:08;;;;;;;3.75;2.35;;;;;;;18.12;83.72;96276.66;5030615;28;20189;-65
2021/07/31 01:55:33;;;;;;;3.27;2.10;;;;;;;17.99;83.78;96270.22;5031486;28;20182;-64
2021/07/31 01:57:59;;;;;;;3.25;2.67;;;;;;;18.07;84.20;96269.56;5029960;28;20193;-64
2021/07/31 02:00:24;;;;;;;3.03;2.67;;;;;;;17.91;85.78;96265.53;5030903;28;20179;-64
2021/07/31 02:02:49;;;;;;;3.35;2.83;;;;;;;17.85;87.23;96262.16;5030295;28;20187;-64
2021/07/31 02:05:15;;;;;;;6.47;3.00;;;;;;;17.95;87.03;96286.97;5030861;28;20209;-64
2021/07/31 02:07:40;;;;;;;3.53;2.93;;;;;;;18.02;87.89;96280.25;5030637;28;20190;-69
2021/07/31 02:10:06;;;;;;;4.30;2.77;;;;;;;17.88;88.11;96271.44;5031025;28;20197;-63
2021/07/31 02:12:31;;;;;;;3.40;3.10;;;;;;;17.92;88.00;96269.78;5030736;28;20636;-64
2021/07/31 02:14:57;;;;;;;3.17;2.90;;;;;;;17.98;87.57;96262.53;5030254;28;20281;-65
2021/07/31 02:17:22;;;;;;;5.30;3.40;;;;;;;17.94;88.60;96270.28;5030681;28;20186;-64
2021/07/31 02:19:47;;;;;;;3.40;3.10;;;;;;;17.92;89.73;96264.47;5028677;28;20214;-64
2021/07/31 02:22:13;;;;;;;3.42;2.95;;;;;;;17.74;89.97;96267.88;5030804;28;20194;-64
2021/07/31 02:24:38;;;;;;;4.53;3.07;;;;;;;17.85;89.93;96270.13;5030405;28;20561;-64
2021/07/31 02:27:03;;;;;;;4.00;3.17;;;;;;;17.77;91.96;96270.78;5030357;28;20201;-64
2021/07/31 02:29:29;;;;;;;5.20;3.63;;;;;;;17.79;92.28;96273.91;5030685;28;20203;-64
2021/07/31 02:31:54;;;;;;;5.27;3.60;;;;;;;17.73;92.89;96267.09;5030147;28;20273;-64
2021/07/31 02:34:19;;;;;;;4.47;3.20;;;;;;;17.76;92.38;96269.19;5030875;28;20183;-64
2021/07/31 02:36:45;;;;;;;5.27;3.43;;;;;;;17.67;91.93;96270.09;5030263;28;20187;-68
2021/07/31 02:39:10;;;;;;;8.40;4.17;;;;;;;17.65;92.72;96280.19;5030705;28;20227;-65
2021/07/31 02:41:35;;;;;;;4.67;3.40;;;;;;;17.72;93.53;96275.34;5030904;28;20675;-64
2021/07/31 02:44:01;;;;;;;6.85;3.70;;;;;;;17.67;94.29;96275.38;5029957;28;20465;-64
2021/07/31 02:46:26;;;;;;;5.37;3.70;;;;;;;17.55;93.95;96281.09;5030197;28;20248;-67
2021/07/31 02:48:51;;;;;;;5.60;3.37;;;;;;;17.74;89.74;96266.03;5030055;28;20181;-63
2021/07/31 02:51:18;;;;;;;7.13;3.33;;;;;;;17.68;89.49;96274.31;5029777;28;20643;-65
2021/07/31 02:53:43;;;;;;;3.23;2.93;;;;;;;17.67;88.72;96270.09;5029701;28;20640;-69
2021/07/31 02:56:09;;;;;;;3.57;3.13;;;;;;;17.72;88.09;96267.41;5034134;28;20265;-63
2021/07/31 02:58:34;;;;;;;4.23;3.83;;;;;;;17.49;90.35;96271.63;5034228;28;20240;-63
2021/07/31 03:01:04;;;;;;;4.83;3.23;;;;;;;17.42;91.57;96271.94;5033313;28;20182;-63
2021/07/31 03:03:29;;;;;;;3.73;3.30;;;;;;;17.27;91.06;96272.13;5034081;28;20234;-64
2021/07/31 03:05:56;;;;;;;6.73;3.60;;;;;;;17.34;90.86;96271.75;5032679;28;20879;-63
2021/07/31 03:08:22;;;;;;;4.23;3.23;;;;;;;17.40;90.94;96270.63;5032641;28;20206;-63
2021/07/31 03:10:59;;;;;;;5.00;3.30;;;;;;;17.30;91.45;96276.84;5032744;28;20198;-64
2021/07/31 03:13:25;;;;;;;4.90;3.13;;;;;;;17.36;90.65;96278.38;5034039;28;20701;-64
2021/07/31 03:15:52;;;;;;;3.80;3.17;;;;;;;17.35;88.87;96274.13;5031582;28;20214;-63
2021/07/31 03:18:17;;;;;;;4.07;3.30;;;;;;;17.33;88.55;96275.50;5030479;28;20256;-64
2021/07/31 03:20:51;;;;;;;7.10;3.03;;;;;;;17.36;87.88;96277.56;5033423;28;20644;-70
2021/07/31 03:23:18;;;;;;;4.83;2.60;;;;;;;17.19;87.59;96272.72;5033557;28;20186;-63
2021/07/31 03:25:44;;;;;;;3.17;2.70;;;;;;;17.22;86.72;96279.31;5032876;28;20297;-70
2021/07/31 03:28:11;;;;;;;6.00;3.37;;;;;;;17.15;85.30;96273.56;5033735;28;20325;-63
2021/07/31 03:30:41;;;;;;;3.00;2.50;;;;;;;17.15;84.10;96282.31;5033581;28;20198;-63
2021/07/31 03:33:07;;;;;;;2.73;2.50;;;;;;;17.15;82.40;96278.88;5032839;28;20195;-66
2021/07/31 03:35:33;;;;;;;4.93;2.40;;;;;;;17.20;81.51;96279.59;5033053;28;20248;-63
2021/07/31 03:37:58;;;;;;;4.90;2.47;;;;;;;16.96;83.03;96289.34;5032709;28;20269;-63
2021/07/31 03:40:23;;;;;;;3.13;2.63;;;;;;;16.93;83.03;96276.69;5033782;28;20230;-64
2021/07/31 03:42:49;;;;;;;3.13;2.13;;;;;;;17.07;80.63;96282.91;5032447;28;20213;-64
2021/07/31 03:45:14;;;;;;;4.63;2.20;;;;;;;16.90;80.63;96275.38;5033461;28;20210;-64
2021/07/31 03:47:40;;;;;;;2.70;2.10;;;;;;;16.90;79.95;96279.88;5031653;28;20187;-66
2021/07/31 03:50:05;;;;;;;2.87;1.90;;;;;;;16.84;79.82;96279.13;5031833;28;20202;-64
2021/07/31 03:52:31;;;;;;;2.13;1.93;;;;;;;16.72;79.25;96280.59;5033066;28;20186;-64
2021/07/31 03:54:56;;;;;;;4.50;2.00;;;;;;;16.82;79.22;96275.19;5032329;28;20592;-63
2021/07/31 03:57:21;;;;;;;3.07;2.10;;;;;;;16.79;78.83;96278.38;5033195;28;20191;-64
2021/07/31 03:59:47;;;;;;;3.40;1.87;;;;;;;16.80;77.93;96272.81;5032345;28;20252;-64
2021/07/31 04:02:13;;;;;;;3.03;2.00;;;;;;;16.92;76.78;96281.19;5033432;28;20273;-64
2021/07/31 04:04:38;;;;;;;6.97;1.90;;;;;;;16.76;76.85;96276.31;5032200;28;20194;-64
2021/07/31 04:07:04;;;;;;;2.93;1.70;;;;;;;16.79;76.66;96281.03;5032189;28;20187;-64
2021/07/31 04:09:29;;;;;;;4.37;1.90;;;;;;;16.77;77.22;96278.69;5032691;28;20191;-64
2021/07/31 04:11:54;;;;;;;3.43;1.73;;;;;;;16.87;76.43;96278.59;5032293;28;20198;-64
2021/07/31 04:14:20;;;;;;;2.60;1.77;;;;;;;16.76;76.99;96276.31;5032388;28;20547;-64
2021/07/31 04:16:45;;;;;;;2.23;1.87;;;;;;;16.84;77.17;96281.78;5032015;28;20194;-70
2021/07/31 04:19:11;;;;;;;2.10;1.90;;;;;;;16.73;77.69;96276.84;5030401;28;20667;-63
2021/07/31 04:21:37;;;;;;;2.70;1.73;;;;;;;16.79;77.45;96273.09;5032330;28;20202;-64
2021/07/31 04:24:03;;;;;;;2.53;1.97;;;;;;;16.89;77.31;96286.25;5032095;28;20209;-64
2021/07/31 04:26:28;;;;;;;4.37;1.90;;;;;;;16.94;76.83;96288.88;5032436;28;20202;-63
2021/07/31 04:28:53;;;;;;;10.10;1.97;;;;;;;17.01;76.79;96287.44;5032010;28;20198;-63
2021/07/31 04:31:19;;;;;;;3.77;1.87;;;;;;;17.09;75.87;96288.72;5032104;28;20193;-64
2021/07/31 04:33:44;;;;;;;3.17;1.70;;;;;;;17.14;75.22;96293.97;5031504;28;20206;-69
2021/07/31 04:36:10;;;;;;;2.83;1.90;;;;;;;17.16;74.67;96296.34;5032271;28;20186;-63
2021/07/31 04:38:37;;;;;;;1.83;1.70;;;;;;;17.14;75.02;96295.81;5030391;28;20230;-63
2021/07/31 04:41:03;;;;;;;1.93;1.57;;;;;;;17.26;74.39;96296.22;5031542;28;20273;-63
2021/07/31 04:43:30;;;;;;;2.17;1.80;;;;;;;17.30;73.97;96298.03;5030993;28;20529;-64
2021/07/31 04:45:56;;;;;;;1.93;1.80;;;;;;;17.19;74.42;96299.22;5031034;28;20210;-63
2021/07/31 04:48:21;;;;;;;2.20;1.47;;;;;;;17.28;74.23;96308.09;5032139;28;20190;-63
2021/07/31 04:50:54;;;;;;;2.10;1.67;;;;;;;17.29;74.38;96315.00;5030546;28;20664;-65
2021/07/31 04:53:19;;;;;;;3.27;1.80;;;;;;;17.44;74.10;96314.81;5031893;28;20229;-63
2021/07/31 04:55:45;;;;;;;2.50;1.60;;;;;;;17.68;73.18;96316.72;5031241;28;20186;-69
2021/07/31 04:58:10;;;;;;;2.50;1.87;;;;;;;17.72;73.59;96313.22;5031337;28;20197;-64
2021/07/31 05:00:35;;;;;;;2.27;1.97;;;;;;;17.93;72.77;96307.69;5030009;28;20277;-63
2021/07/31 05:03:05;;;;;;;3.03;1.90;;;;;;;18.05;71.76;96306.22;5030563;28;20217;-65
2021/07/31 05:05:36;;;;;;;1.60;1.50;;;;;;;18.32;69.67;96310.88;5020978;28;20245;-63
2021/07/31 05:08:01;;;;;;;1.70;1.60;;;;;;;18.58;68.49;96306.00;5030894;28;20189;-63
2021/07/31 05:10:26;;;;;;;6.07;1.73;;;;;;;18.81;66.94;96304.31;5031650;28;20280;-66
2021/07/31 05:12:52;;;;;;;4.30;1.30;;;;;;;19.26;65.22;96316.84;5030631;28;20191;-64
2021/07/31 05:15:17;;;;;;;2.95;1.50;;;;;;;19.60;64.30;96319.16;5031619;28;20651;-64
2021/07/31 05:17:43;;;;;;;1.75;1.23;;;;;;;19.97;63.08;96312.03;5029657;28;20609;-69
2021/07/31 05:20:09;;;;;;;1.33;1.23;;;;;;;20.19;62.50;96314.75;5030393;28;20187;-64
2021/07/31 05:22:34;;;;;;;1.40;1.30;;;;;;;20.36;61.82;96320.28;5031835;28;20205;-63
2021/07/31 05:24:59;;;;;;;1.63;1.38;;;;;;;20.39;62.33;96324.22;5030575;28;20206;-63
2021/07/31 05:27:25;;;;;;;3.35;1.20;;;;;;;20.53;61.61;96320.44;5031042;28;20241;-64
2021/07/31 05:29:50;;;;;;;6.03;1.50;;;;;;;20.70;61.91;96323.22;5030158;28;20190;-63
2021/07/31 05:32:15;;;;;;;2.75;1.20;;;;;;;20.89;60.66;96322.28;5030987;28;20300;-63
2021/07/31 05:34:41;;;;;;;1.33;1.23;;;;;;;21.03;59.91;96325.63;5030828;28;20249;-63
2021/07/31 05:37:06;;;;;;;3.42;1.23;;;;;;;20.88;59.62;96329.47;5030368;28;20186;-64
2021/07/31 05:39:33;;;;;;;1.77;1.20;;;;;;;21.04;58.96;96332.56;5030752;28;20309;-64
2021/07/31 05:42:02;;;;;;;3.03;1.30;;;;;;;21.14;58.42;96334.97;5030723;28;20194;-64
2021/07/31 05:44:28;;;;;;;2.00;1.38;;;;;;;21.36;56.11;96331.50;5030705;28;20701;-64
2021/07/31 05:46:53;;;;;;;1.40;1.30;;;;;;;21.39;56.26;96318.38;5030060;28;20628;-64
2021/07/31 05:49:19;;;;;;;2.83;1.38;;;;;;;21.53;55.29;96327.03;5030530;28;20224;-66
2021/07/31 05:51:44;;;;;;;4.88;1.20;;;;;;;21.47;55.18;96328.25;5030858;28;20183;-70
2021/07/31 05:54:10;;;;;;;3.53;1.10;;;;;;;21.55;55.18;96329.41;5031118;28;20671;-64
2021/07/31 05:56:35;;;;;;;2.70;1.17;;;;;;;21.71;54.69;96322.56;5030866;28;20205;-64
2021/07/31 05:59:01;;;;;;;1.33;1.08;;;;;;;21.87;54.79;96320.25;5028739;28;20493;-64
2021/07/31 06:01:26;;;;;;;1.17;1.10;;;;;;;21.92;55.01;96325.44;5030785;28;20210;-63
2021/07/31 06:03:51;;;;;;;1.25;1.10;;;;;;;22.13;55.04;96329.13;5028985;28;20532;-63
2021/07/31 06:06:17;;;;;;;1.25;1.10;;;;;;;22.19;55.18;96330.56;5030377;28;20725;-62
2021/07/31 06:08:43;;;;;;;3.47;1.33;;;;;;;22.19;55.29;96327.88;5030567;28;20214;-63
2021/07/31 06:11:08;;;;;;;1.50;1.17;;;;;;;22.19;54.69;96327.09;5030105;28;20202;-63
2021/07/31 06:13:34;;;;;;;1.20;1.10;;;;;;;22.32;55.28;96328.88;5031110;28;20202;-63
2021/07/31 06:15:59;;;;;;;4.93;1.45;;;;;;;22.14;56.01;96336.06;5029543;28;20194;-66
2021/07/31 06:18:25;;;;;;;1.83;1.70;;;;;;;22.10;56.39;96329.78;5026715;28;20576;-64
2021/07/31 06:20:51;;;;;;;1.83;1.25;;;;;;;22.16;55.98;96331.19;5060475;28;20194;-64
2021/07/31 06:23:17;;;;;;;3.97;1.67;;;;;;;22.08;55.56;96331.94;5030219;28;20191;-63
2021/07/31 06:25:43;;;;;;;1.48;1.23;;;;;;;22.23;55.58;96328.88;5029594;28;20252;-64
2021/07/31 06:28:08;;;;;;;3.40;1.30;;;;;;;22.37;54.81;96323.38;5028063;28;20187;-64
2021/07/31 06:30:33;;;;;;;2.28;1.48;;;;;;;22.32;54.29;96340.34;5032854;28;20183;-63
2021/07/31 06:32:59;;;;;;;3.67;1.52;;;;;;;22.48;54.67;96329.97;5032508;28;20189;-66
2021/07/31 06:35:24;;;;;;;2.83;1.23;;;;;;;22.37;54.88;96334.03;5033544;28;20190;-64
2021/07/31 06:37:50;;;;;;;2.38;1.40;;;;;;;22.69;54.29;96330.13;5033385;28;20186;-70
2021/07/31 06:40:15;;;;;;;2.78;1.20;;;;;;;22.65;54.49;96327.31;5033033;28;20234;-63
2021/07/31 06:42:40;;;;;;;1.45;1.35;;;;;;;22.65;52.72;96327.31;5035021;28;20178;-63
2021/07/31 06:45:06;;;;;;;1.92;1.30;;;;;;;22.69;53.43;96327.47;5033093;28;20869;-63
2021/07/31 06:47:32;;;;;;;1.80;0.90;;;;;;;22.56;51.43;96325.75;5033591;28;20195;-64
2021/07/31 06:49:57;;;;;;;3.78;1.50;;;;;;;22.82;51.16;96331.09;5032652;28;20186;-63
2021/07/31 06:52:22;;;;;;;1.30;1.10;;;;;;;22.82;51.33;96334.56;5033724;28;20191;-63
2021/07/31 06:54:48;;;;;;;1.13;0.90;;;;;;;22.82;50.35;96328.44;5034121;28;20711;-73
2021/07/31 06:57:13;;;;;;;3.13;1.33;;;;;;;22.54;51.11;96326.06;5033167;28;20663;-63
2021/07/31 06:59:39;;;;;;;2.95;1.33;;;;;;;22.72;49.99;96327.66;5032369;28;20237;-63
2021/07/31 07:02:04;;;;;;;1.60;1.13;;;;;;;22.79;49.79;96321.84;5032410;28;20232;-64
2021/07/31 07:04:30;;;;;;;1.63;1.25;;;;;;;22.98;49.07;96326.84;5033190;28;20194;-63
2021/07/31 07:06:56;;;;;;;1.38;1.20;;;;;;;23.06;49.19;96324.16;5033185;28;20182;-64
2021/07/31 07:09:21;;;;;;;1.90;1.20;;;;;;;22.46;48.90;96328.72;5033912;28;20277;-63
2021/07/31 07:11:46;;;;;;;1.83;1.05;;;;;;;22.68;50.01;96326.66;5032888;28;20224;-65
2021/07/31 07:14:12;;;;;;;1.40;1.15;;;;;;;22.83;49.13;96320.09;5033074;28;20183;-64
2021/07/31 07:16:37;;;;;;;2.85;1.25;;;;;;;22.71;49.44;96318.06;5030075;28;20639;-64
2021/07/31 07:19:02;;;;;;;2.17;1.27;;;;;;;23.03;49.19;96315.97;5031452;28;20313;-63
2021/07/31 07:21:28;;;;;;;1.75;1.30;;;;;;;23.29;48.90;96316.72;5034121;28;20545;-64
2021/07/31 07:23:54;;;;;;;2.38;1.20;;;;;;;23.52;48.30;96323.41;5033183;28;20522;-65
2021/07/31 07:26:19;;;;;;;4.32;1.35;;;;;;;23.36;48.70;96318.88;5033482;28;20209;-64
2021/07/31 07:28:45;;;;;;;3.03;1.23;;;;;;;23.38;49.03;96311.34;5031563;28;20190;-66
2021/07/31 07:31:12;;;;;;;1.98;1.25;;;;;;;23.44;48.71;96313.53;5032678;28;20191;-66
2021/07/31 07:33:38;;;;;;;2.75;1.27;;;;;;;23.40;48.42;96311.81;5023649;28;20648;-64
2021/07/31 07:36:18;;;;;;;1.38;1.10;;;;;;;23.40;47.94;96312.59;5032350;28;20197;-64
2021/07/31 07:38:46;;;;;;;1.98;1.40;;;;;;;23.58;48.06;96316.00;5033845;28;20249;-63
2021/07/31 07:41:13;;;;;;;3.72;1.08;;;;;;;23.85;47.71;96306.78;5032320;28;20267;-64
2021/07/31 07:43:39;;;;;;;1.42;1.10;;;;;;;23.92;48.52;96317.75;5033294;28;20230;-65
2021/07/31 07:46:05;;;;;;;1.27;1.00;;;;;;;23.87;47.54;96309.91;5031108;28;20207;-66
2021/07/31 07:48:30;;;;;;;1.77;1.20;;;;;;;23.69;47.46;96319.09;5033188;28;20190;-65
2021/07/31 07:50:56;;;;;;;1.95;1.20;;;;;;;23.33;47.62;96323.00;5032011;28;20531;-64
2021/07/31 07:53:21;;;;;;;6.22;1.00;;;;;;;23.59;46.90;96323.72;5032638;28;20590;-64
2021/07/31 07:55:47;;;;;;;2.65;1.30;;;;;;;23.89;47.11;96315.72;5031714;28;20249;-65
2021/07/31 07:58:12;;;;;;;2.50;1.13;;;;;;;24.26;46.49;96311.41;5031988;28;20206;-65
2021/07/31 08:00:38;;;;;;;2.13;1.00;;;;;;;24.37;46.42;96317.97;5032922;28;20280;-64
2021/07/31 08:03:07;;;;;;;3.10;1.50;;;;;;;24.32;45.21;96321.63;5031782;28;20648;-65
2021/07/31 08:05:32;;;;;;;5.60;1.30;;;;;;;24.46;45.99;96315.25;5032631;28;20205;-65
2021/07/31 08:07:58;;;;;;;1.58;1.17;;;;;;;24.72;44.18;96315.81;5028770;28;20826;-68
2021/07/31 08:10:23;;;;;;;1.95;1.20;;;;;;;24.68;44.56;96317.59;5032669;28;20229;-64
2021/07/31 08:12:49;;;;;;;2.13;1.20;;;;;;;25.13;43.83;96323.78;5032521;28;20643;-69
2021/07/31 08:15:14;;;;;;;2.25;1.00;;;;;;;24.82;42.22;96318.09;5029941;28;20661;-65
2021/07/31 08:17:39;;;;;;;1.80;1.23;;;;;;;24.63;42.24;96323.91;5031870;28;20579;-63
2021/07/31 08:20:05;;;;;;;1.95;1.25;;;;;;;24.67;43.38;96316.81;5031952;28;20265;-64
2021/07/31 08:22:31;;;;;;;2.85;1.27;;;;;;;24.47;44.11;96320.25;5031407;28;20186;-65
2021/07/31 08:24:57;;;;;;;1.75;1.10;;;;;;;24.81;43.58;96313.81;5031359;28;20305;-64
2021/07/31 08:27:22;;;;;;;1.88;1.10;;;;;;;24.84;42.93;96315.88;5032943;28;20186;-64
2021/07/31 08:29:48;;;;;;;2.33;1.13;;;;;;;24.80;42.31;96314.94;5031556;28;20698;-64
2021/07/31 08:32:13;;;;;;;1.02;1.00;;;;;;;24.71;42.47;96315.03;5031144;28;20682;-65
2021/07/31 08:34:39;;;;;;;3.55;1.10;;;;;;;24.95;42.42;96308.22;5030805;28;20544;-64
2021/07/31 08:37:04;;;;;;;2.70;1.50;;;;;;;25.29;41.77;96310.56;5031169;28;20289;-64
2021/07/31 08:39:30;;;;;;;3.58;1.35;;;;;;;25.79;40.77;96314.91;5031486;28;20234;-64
2021/07/31 08:41:56;;;;;;;1.75;1.13;;;;;;;25.78;40.68;96322.16;5031949;28;20233;-67
2021/07/31 08:44:21;;;;;;;1.58;1.10;;;;;;;25.67;41.33;96313.78;5030521;28;20179;-65
2021/07/31 08:46:50;;;;;;;1.45;1.00;;;;;;;25.86;40.85;96317.78;5031757;28;20206;-64
2021/07/31 08:49:22;;;;;;;1.10;0.95;;;;;;;26.07;40.68;96329.22;5031105;28;20195;-64
2021/07/31 08:51:47;;;;;;;1.42;1.10;;;;;;;26.19;40.61;96325.75;5031141;28;20187;-64
2021/07/31 08:54:13;;;;;;;1.33;1.02;;;;;;;26.31;39.43;96318.44;5031159;28;20453;-70
2021/07/31 08:56:45;;;;;;;1.70;1.10;;;;;;;26.16;40.31;96318.34;5032128;28;20269;-64
2021/07/31 08:59:10;;;;;;;2.78;1.13;;;;;;;26.22;40.13;96331.22;5029837;28;20198;-64
2021/07/31 09:01:36;;;;;;;3.40;1.10;;;;;;;26.70;39.80;96322.28;5031782;28;20183;-64
2021/07/31 09:04:13;;;;;;;1.58;1.08;;;;;;;26.81;38.15;96317.19;5030426;28;20227;-64
2021/07/31 09:06:39;;;;;;;2.40;1.00;;;;;;;26.34;39.74;96320.47;5031627;28;20198;-64
2021/07/31 09:09:04;;;;;;;1.20;0.90;;;;;;;26.31;38.56;96310.38;5030415;28;20526;-64
2021/07/31 09:11:30;;;;;;;1.70;0.88;;;;;;;26.40;39.32;96310.28;5032018;28;20274;-65
2021/07/31 09:14:16;;;;;;;1.38;1.02;;;;;;;26.36;39.65;96304.78;5029680;28;20179;-69
2021/07/31 09:16:44;;;;;;;2.15;0.98;;;;;;;26.45;39.51;96310.03;5028499;28;20194;-64
2021/07/31 09:19:12;;;;;;;1.65;1.00;;;;;;;26.42;39.32;96311.47;5030197;28;20193;-65
2021/07/31 09:21:40;;;;;;;4.47;1.02;;;;;;;26.22;39.93;96301.66;5030475;28;20193;-73
2021/07/31 09:24:20;;;;;;;2.92;0.98;;;;;;;26.49;39.35;96300.16;5028493;28;20270;-64
2021/07/31 09:26:49;;;;;;;1.13;1.02;;;;;;;26.57;38.67;96298.47;5030155;28;20205;-61
2021/07/31 09:29:38;;;;;;;2.25;1.02;;;;;;;26.52;38.78;96301.41;5027343;28;20325;-61
2021/07/31 09:32:07;;;;;;;2.72;1.20;;;;;;;26.54;38.76;96291.06;5030023;28;20241;-61
2021/07/31 09:34:43;;;;;;;1.05;0.95;;;;;;;26.43;38.47;96296.13;5030818;28;20186;-61
2021/07/31 09:37:25;;;;;;;1.30;0.80;;;;;;;26.43;38.13;96286.19;5029744;28;20182;-63
2021/07/31 09:40:04;;;;;;;1.65;1.02;;;;;;;26.06;39.29;96288.13;5029991;28;20321;-64
2021/07/31 09:42:35;;;;;;;1.10;1.00;;;;;;;26.31;38.65;96294.25;5030915;28;20668;-64
2021/07/31 09:45:13;;;;;;;1.05;0.93;;;;;;;26.17;38.74;96291.13;5030005;28;20229;-63
2021/07/31 09:47:58;;;;;;;2.28;0.90;;;;;;;26.24;39.01;96287.91;5029385;28;20213;-64
2021/07/31 09:50:47;;;;;;;0.98;0.88;;;;;;;26.50;38.13;96293.66;5014359;28;20531;-64
2021/07/31 09:53:15;;;;;;;1.80;1.05;;;;;;;26.21;39.01;96291.22;5026153;28;21015;-64
2021/07/31 09:55:46;;;;;;;2.17;0.88;;;;;;;26.12;38.64;96282.53;5030781;28;20197;-63
2021/07/31 09:58:16;;;;;;;3.08;1.00;;;;;;;26.44;38.13;96281.59;5023687;28;20284;-64
2021/07/31 10:00:45;;;;;;;2.30;1.10;;;;;;;26.42;38.79;96281.13;5030907;28;20261;-64
2021/07/31 10:03:14;;;;;;;2.88;1.17;;;;;;;26.54;39.01;96272.25;5030683;28;20658;-63
2021/07/31 10:05:42;;;;;;;1.30;1.10;;;;;;;26.17;38.96;96275.00;5034458;28;20260;-61
2021/07/31 10:08:09;;;;;;;1.95;1.20;;;;;;;25.99;38.82;96271.78;5033561;28;20183;-64
2021/07/31 10:10:35;;;;;;;4.10;1.10;;;;;;;26.46;37.65;96282.03;5035149;28;20183;-66
2021/07/31 10:13:01;;;;;;;2.28;1.63;;;;;;;26.17;39.32;96269.63;5033343;28;20240;-63
2021/07/31 10:15:27;;;;;;;2.20;1.30;;;;;;;25.48;40.21;96265.19;5032527;28;20501;-62
2021/07/31 10:17:53;;;;;;;1.73;1.20;;;;;;;25.58;40.10;96262.06;5033661;28;20178;-66
2021/07/31 10:20:30;;;;;;;2.13;1.35;;;;;;;25.91;39.93;96255.81;5033687;28;20183;-63
2021/07/31 10:22:55;;;;;;;1.58;1.10;;;;;;;26.11;39.06;96256.78;5034631;28;20181;-72
2021/07/31 10:25:22;;;;;;;2.95;1.35;;;;;;;26.27;38.11;96266.50;5033827;28;20210;-65
2021/07/31 10:27:49;;;;;;;1.27;1.20;;;;;;;25.71;40.21;96270.91;5034687;28;20206;-63
2021/07/31 10:30:35;;;;;;;2.55;1.10;;;;;;;25.56;41.31;96275.06;5029235;28;20827;-67
2021/07/31 10:33:02;;;;;;;1.58;1.23;;;;;;;25.34;40.94;96272.78;5033135;28;20178;-63
2021/07/31 10:35:31;;;;;;;2.58;1.00;;;;;;;25.22;41.33;96270.84;5029382;28;20201;-64
2021/07/31 10:38:00;;;;;;;1.27;1.02;;;;;;;25.00;42.08;96275.84;5034030;28;20249;-70
2021/07/31 10:40:25;;;;;;;4.07;0.90;;;;;;;24.67;42.24;96270.44;5033829;28;20321;-64
2021/07/31 10:42:50;;;;;;;0.90;0.90;;;;;;;24.35;41.31;96269.31;5032892;28;20204;-64
2021/07/31 10:45:17;;;;;;;3.65;1.02;;;;;;;24.67;41.06;96270.44;5032290;28;20233;-64
2021/07/31 10:47:42;;;;;;;1.70;1.23;;;;;;;25.01;40.50;96270.16;5033485;28;20690;-64
2021/07/31 10:50:23;;;;;;;0.98;0.95;;;;;;;25.25;40.63;96269.38;5033443;28;20299;-64
2021/07/31 10:52:56;;;;;;;1.77;1.00;;;;;;;25.46;38.74;96270.13;5034130;28;20186;-64
2021/07/31 10:55:26;;;;;;;1.15;0.88;;;;;;;25.92;38.29;96262.72;5033523;28;20717;-64
2021/07/31 10:57:54;;;;;;;2.90;1.20;;;;;;;26.08;38.50;96269.75;5034061;28;20189;-68
2021/07/31 11:00:20;;;;;;;1.27;0.88;;;;;;;26.42;37.56;96270.38;5013825;28;20262;-65
2021/07/31 11:02:45;;;;;;;1.77;1.25;;;;;;;26.66;37.52;96264.13;5017565;28;20278;-64
2021/07/31 11:05:10;;;;;;;1.05;0.95;;;;;;;26.62;37.97;96274.81;5032737;28;20214;-64
2021/07/31 11:08:08;;;;;;;4.40;1.20;;;;;;;26.19;36.76;96272.78;5032585;28;20218;-64
2021/07/31 11:10:42;;;;;;;1.05;0.85;;;;;;;26.25;37.63;96268.75;5002127;28;20207;-64
2021/07/31 11:13:28;;;;;;;3.55;1.23;;;;;;;26.21;37.57;96269.75;5033183;28;20314;-64
2021/07/31 11:15:59;;;;;;;0.80;0.80;;;;;;;26.35;37.07;96268.28;5031000;28;20198;-64
2021/07/31 11:18:39;;;;;;;1.92;0.90;;;;;;;26.59;36.71;96263.94;5033045;28;20663;-64
2021/07/31 11:21:11;;;;;;;2.17;0.90;;;;;;;26.45;35.98;96261.66;5033130;28;20687;-64
2021/07/31 11:23:57;;;;;;;2.50;0.95;;;;;;;26.36;37.45;96267.16;5033399;28;20205;-64
2021/07/31 11:26:49;;;;;;;1.83;1.10;;;;;;;26.94;36.48;96264.16;5032864;28;20282;-64
2021/07/31 11:29:25;;;;;;;2.20;1.10;;;;;;;26.95;36.81;96261.13;5032323;28;20274;-62
2021/07/31 11:32:02;;;;;;;1.27;0.80;;;;;;;26.32;37.80;96265.47;5033513;28;20186;-65
2021/07/31 11:34:34;;;;;;;3.05;0.93;;;;;;;26.53;37.16;96259.94;5033481;28;20240;-64